Time;durP1;ratioP1;P1;durP2;ratioP2;P2;SDS_P1;SDS_P2;PMS_P1;PMS_P2;Temp;Humidity;BMP_temperature;BMP_pressure;BME280_temperature;BME280_humidity;BME280_pressure;Samples;Min_cycle;Max_cycle;Signal;HPM_P1;HPM_P2
2023/05/06 00:01:34;;;;;;;29.33;20.15;;;;;;;12.25;100.00;101583.72;10319423;28;20125;-74
2023/05/06 00:06:35;;;;;;;25.42;17.30;;;;;;;12.40;100.00;101577.38;10318499;28;20034;-73
2023/05/06 00:11:36;;;;;;;21.83;16.95;;;;;;;12.47;100.00;101572.84;10336723;28;20054;-73
2023/05/06 00:16:36;;;;;;;19.40;16.50;;;;;;;12.56;100.00;101577.13;10335920;28;20125;-74
2023/05/06 00:21:37;;;;;;;22.83;16.67;;;;;;;12.70;100.00;101569.91;10335840;28;20030;-75
2023/05/06 00:26:38;;;;;;;22.70;16.92;;;;;;;12.75;100.00;101568.31;10335305;28;20049;-76
2023/05/06 00:31:39;;;;;;;25.98;18.90;;;;;;;12.76;100.00;101563.72;10336192;28;20045;-75
2023/05/06 00:36:41;;;;;;;21.48;18.27;;;;;;;12.71;100.00;101563.47;10335267;28;20038;-76
2023/05/06 00:41:42;;;;;;;22.70;15.63;;;;;;;12.56;100.00;101561.66;10319325;28;20038;-75
2023/05/06 00:46:42;;;;;;;25.15;18.80;;;;;;;12.41;100.00;101555.47;10336906;28;20041;-75
2023/05/06 00:51:42;;;;;;;23.25;18.50;;;;;;;12.28;100.00;101541.72;10343682;28;20344;-75
2023/05/06 00:56:43;;;;;;;36.05;19.77;;;;;;;12.12;100.00;101540.09;10332811;28;20045;-75
2023/05/06 01:01:43;;;;;;;20.15;17.92;;;;;;;11.98;100.00;101541.00;10322607;28;20065;-75
2023/05/06 01:06:49;;;;;;;22.77;17.80;;;;;;;11.85;100.00;101545.22;10334254;28;20069;-74
2023/05/06 01:11:54;;;;;;;23.42;16.50;;;;;;;11.74;100.00;101540.28;10316555;28;20402;-74
2023/05/06 01:16:56;;;;;;;21.27;18.25;;;;;;;11.73;100.00;101543.16;10332432;28;20035;-76
2023/05/06 01:21:56;;;;;;;23.73;16.83;;;;;;;11.67;100.00;101547.47;10300288;28;20023;-75
2023/05/06 01:26:57;;;;;;;24.95;17.95;;;;;;;11.56;100.00;101543.38;10316185;28;20030;-74
2023/05/06 01:32:01;;;;;;;23.42;18.55;;;;;;;11.51;100.00;101548.50;10333966;28;20482;-75
2023/05/06 01:37:13;;;;;;;23.35;18.90;;;;;;;11.47;100.00;101549.06;10315830;28;20442;-76
2023/05/06 01:42:13;;;;;;;30.10;18.15;;;;;;;11.48;100.00;101564.31;10301171;28;20030;-74
2023/05/06 01:47:14;;;;;;;25.25;19.42;;;;;;;11.39;100.00;101564.41;10300541;28;20034;-74
2023/05/06 01:52:15;;;;;;;29.70;21.00;;;;;;;11.36;100.00;101566.66;10301004;28;20026;-74
2023/05/06 01:57:15;;;;;;;26.35;20.95;;;;;;;11.34;100.00;101579.56;10332392;28;20061;-76
2023/05/06 02:02:16;;;;;;;27.60;21.73;;;;;;;11.26;100.00;101579.63;10317986;28;20073;-74
2023/05/06 02:07:16;;;;;;;31.27;22.55;;;;;;;11.17;100.00;101582.44;10340076;28;20038;-74
2023/05/06 02:12:16;;;;;;;23.52;19.88;;;;;;;11.13;100.00;101578.41;10347356;28;20082;-77
2023/05/06 02:17:17;;;;;;;25.58;21.17;;;;;;;11.05;100.00;101581.19;10366390;28;20041;-85
2023/05/06 02:22:17;;;;;;;36.75;21.65;;;;;;;11.03;100.00;101585.13;10361514;28;20042;-84
2023/05/06 02:27:18;;;;;;;27.02;20.60;;;;;;;10.92;100.00;101587.25;10362425;28;20057;-83
2023/05/06 02:32:19;;;;;;;25.52;20.63;;;;;;;10.85;100.00;101582.75;10364386;28;20050;-82
2023/05/06 02:37:19;;;;;;;30.40;21.15;;;;;;;10.77;100.00;101583.66;10344863;28;20042;-84
2023/05/06 02:42:22;;;;;;;23.33;20.73;;;;;;;10.76;100.00;101581.97;10346705;28;20026;-83
2023/05/06 02:47:23;;;;;;;28.67;21.58;;;;;;;10.71;100.00;101582.50;10382415;28;20045;-85
2023/05/06 02:52:23;;;;;;;31.40;21.90;;;;;;;10.76;100.00;101587.38;10341129;28;20035;-87
2023/05/06 02:57:23;;;;;;;24.10;21.48;;;;;;;10.91;100.00;101580.16;10372745;28;20030;-86
2023/05/06 03:02:24;;;;;;;31.88;22.00;;;;;;;11.12;100.00;101584.00;10345191;28;20034;-82
2023/05/06 03:07:24;;;;;;;28.70;21.02;;;;;;;11.28;100.00;101583.84;10344279;28;20399;-82
2023/05/06 03:12:25;;;;;;;27.13;21.30;;;;;;;11.34;100.00;101579.56;10375379;28;20149;-86
2023/05/06 03:17:26;;;;;;;37.55;22.65;;;;;;;11.29;100.00;101577.38;10356490;28;20090;-84
2023/05/06 03:22:26;;;;;;;25.63;20.90;;;;;;;11.16;100.00;101578.03;10354090;28;20026;-84
2023/05/06 03:27:26;;;;;;;32.83;22.23;;;;;;;11.10;100.00;101577.91;10354990;28;20027;-83
2023/05/06 03:32:27;;;;;;;23.20;20.58;;;;;;;11.08;100.00;101580.00;10339242;28;20454;-84
2023/05/06 03:37:29;;;;;;;24.33;20.55;;;;;;;11.16;100.00;101575.31;10334479;28;20030;-83
2023/05/06 03:42:30;;;;;;;24.38;20.25;;;;;;;11.21;100.00;101577.50;10357057;28;20060;-83
2023/05/06 03:47:30;;;;;;;25.98;20.98;;;;;;;11.34;100.00;101585.81;10354089;28;20031;-80
2023/05/06 03:52:31;;;;;;;35.50;23.10;;;;;;;11.46;100.00;101588.91;10354426;28;20489;-85
2023/05/06 03:57:31;;;;;;;27.10;20.58;;;;;;;11.57;100.00;101591.16;10343825;28;20038;-85
2023/05/06 04:02:34;;;;;;;31.65;20.83;;;;;;;11.62;100.00;101596.03;10327439;28;20492;-83
2023/05/06 04:07:35;;;;;;;33.50;22.08;;;;;;;11.66;100.00;101589.19;10340367;28;20027;-86
2023/05/06 04:12:35;;;;;;;26.42;20.83;;;;;;;11.66;100.00;101586.47;10352715;28;20144;-86
2023/05/06 04:17:35;;;;;;;27.85;23.08;;;;;;;11.58;100.00;101590.16;10339333;28;20150;-84
2023/05/06 04:22:37;;;;;;;27.13;21.23;;;;;;;11.53;100.00;101591.72;10350778;28;20058;-85
2023/05/06 04:27:37;;;;;;;27.23;19.63;;;;;;;11.51;100.00;101601.91;10317342;28;20112;-85
2023/05/06 04:32:39;;;;;;;26.20;21.33;;;;;;;11.57;100.00;101601.16;10310000;28;20096;-86
2023/05/06 04:37:40;;;;;;;26.48;20.25;;;;;;;11.62;100.00;101594.16;10344396;28;20045;-83
2023/05/06 04:42:41;;;;;;;30.67;22.73;;;;;;;11.72;100.00;101598.47;10328918;28;20030;-84
2023/05/06 04:47:42;;;;;;;29.40;21.23;;;;;;;11.74;100.00;101610.81;10330028;28;20128;-85
2023/05/06 04:52:42;;;;;;;28.52;22.38;;;;;;;11.78;100.00;101611.28;10324519;28;20038;-84
2023/05/06 04:57:42;;;;;;;29.35;22.33;;;;;;;11.90;100.00;101601.66;10319779;28;20031;-83
2023/05/06 05:02:43;;;;;;;29.92;23.02;;;;;;;12.07;100.00;101610.44;10331277;28;20042;-86
2023/05/06 05:07:43;;;;;;;36.75;27.60;;;;;;;12.29;100.00;101616.75;10334898;28;20030;-87
2023/05/06 05:12:45;;;;;;;27.70;23.70;;;;;;;12.88;100.00;101610.22;10333614;28;20065;-85
2023/05/06 05:17:45;;;;;;;39.58;27.15;;;;;;;13.20;100.00;101615.09;10331210;28;20041;-86
2023/05/06 05:22:47;;;;;;;34.88;26.30;;;;;;;13.69;100.00;101614.22;10328897;28;20041;-85
2023/05/06 05:27:47;;;;;;;38.08;26.27;;;;;;;14.10;100.00;101615.25;10327496;28;20102;-85
2023/05/06 05:32:49;;;;;;;39.50;28.73;;;;;;;14.72;100.00;101621.53;10325769;28;20034;-85
2023/05/06 05:37:50;;;;;;;33.28;27.25;;;;;;;15.01;100.00;101623.03;10313231;28;20042;-86
2023/05/06 05:42:50;;;;;;;36.05;25.88;;;;;;;14.78;100.00;101627.00;10318140;28;20030;-86
2023/05/06 05:47:52;;;;;;;37.00;25.33;;;;;;;14.43;100.00;101626.28;10316503;28;20109;-85
2023/05/06 05:52:53;;;;;;;36.33;24.38;;;;;;;14.12;100.00;101622.16;10317701;28;20038;-86
2023/05/06 05:57:53;;;;;;;39.75;24.65;;;;;;;13.96;100.00;101617.06;10319491;28;20560;-83
2023/05/06 06:02:54;;;;;;;29.92;22.95;;;;;;;14.19;100.00;101617.59;10346340;28;20057;-84
2023/05/06 06:07:56;;;;;;;31.45;23.85;;;;;;;14.54;100.00;101617.50;10336931;28;20363;-86
2023/05/06 06:12:56;;;;;;;30.63;22.40;;;;;;;14.61;100.00;101615.66;10339464;28;20058;-85
2023/05/06 06:17:59;;;;;;;28.98;22.88;;;;;;;14.60;100.00;101622.13;10346113;28;20438;-85
2023/05/06 06:23:00;;;;;;;34.42;22.50;;;;;;;14.63;100.00;101618.16;10349504;28;20039;-84
2023/05/06 06:28:00;;;;;;;33.78;23.27;;;;;;;15.16;100.00;101620.94;10349425;28;20030;-84
2023/05/06 06:33:02;;;;;;;38.40;25.73;;;;;;;15.70;100.00;101629.94;10338187;28;20050;-84
2023/05/06 06:38:02;;;;;;;30.60;20.25;;;;;;;16.31;100.00;101634.16;10323171;28;20030;-83
2023/05/06 06:43:03;;;;;;;29.13;22.77;;;;;;;18.04;100.00;101633.59;10331816;28;20496;-84
2023/05/06 06:48:05;;;;;;;30.50;19.58;;;;;;;19.17;100.00;101638.31;10328045;28;20039;-85
2023/05/06 06:53:05;;;;;;;32.10;20.13;;;;;;;19.58;100.00;101639.28;10345711;28;20065;-82
2023/05/06 06:58:06;;;;;;;40.25;22.13;;;;;;;20.03;100.00;101646.91;10314535;28;20049;-82
2023/05/06 07:03:06;;;;;;;17.05;12.60;;;;;;;20.00;100.00;101636.38;10329785;28;20031;-82
2023/05/06 07:08:06;;;;;;;25.70;14.27;;;;;;;20.77;100.00;101647.03;10324192;28;20390;-80
2023/05/06 07:13:07;;;;;;;18.55;12.23;;;;;;;21.73;100.00;101651.63;10181888;28;42568;-80
2023/05/06 07:18:08;;;;;;;17.10;11.20;;;;;;;22.92;100.00;101650.88;10310934;28;20394;-81
2023/05/06 07:23:09;;;;;;;14.93;11.90;;;;;;;22.85;100.00;101650.25;10311452;28;20114;-81
2023/05/06 07:28:09;;;;;;;18.23;9.77;;;;;;;21.99;100.00;101648.16;10309281;28;20035;-79
2023/05/06 07:33:09;;;;;;;16.88;7.10;;;;;;;22.01;100.00;101650.63;10310024;28;20037;-83
2023/05/06 07:38:10;;;;;;;11.27;7.50;;;;;;;21.65;100.00;101657.59;10307683;28;20542;-80
2023/05/06 07:43:11;;;;;;;12.40;6.80;;;;;;;21.82;100.00;101650.97;10321945;28;20565;-79
2023/05/06 07:48:12;;;;;;;13.32;7.97;;;;;;;22.23;100.00;101647.91;10306912;28;20038;-79
2023/05/06 07:53:13;;;;;;;9.15;6.65;;;;;;;22.54;100.00;101640.00;10339383;28;20066;-78
2023/05/06 07:58:13;;;;;;;13.32;7.60;;;;;;;22.64;100.00;101640.91;10322517;28;20041;-80
2023/05/06 08:03:15;;;;;;;14.13;8.10;;;;;;;22.21;100.00;101656.47;10338739;28;20042;-79
2023/05/06 08:08:16;;;;;;;17.17;8.55;;;;;;;21.53;100.00;101661.25;10319089;28;20371;-78
2023/05/06 08:13:17;;;;;;;16.00;7.90;;;;;;;21.36;100.00;101660.44;10317900;28;20054;-78
2023/05/06 08:18:17;;;;;;;13.30;9.55;;;;;;;21.59;100.00;101664.94;10302285;28;20458;-78
2023/05/06 08:23:17;;;;;;;13.68;10.25;;;;;;;22.11;100.00;101655.44;10286194;28;20121;-79
2023/05/06 08:28:18;;;;;;;15.63;12.30;;;;;;;21.89;100.00;101653.53;10301964;28;20065;-79
2023/05/06 08:33:18;;;;;;;20.10;12.10;;;;;;;22.03;100.00;101648.47;10304692;28;20034;-78
2023/05/06 08:38:19;;;;;;;17.77;9.38;;;;;;;22.48;100.00;101664.78;10318167;28;20076;-79
2023/05/06 08:43:20;;;;;;;17.50;9.63;;;;;;;23.52;100.00;101670.19;10301734;28;20470;-78
2023/05/06 08:48:20;;;;;;;22.42;10.82;;;;;;;22.85;100.00;101666.81;10334936;28;20040;-78
2023/05/06 08:53:21;;;;;;;11.63;8.52;;;;;;;23.47;100.00;101664.63;10317015;28;20054;-78
2023/05/06 08:58:21;;;;;;;11.43;7.28;;;;;;;23.15;100.00;101663.53;10335499;28;20109;-79
2023/05/06 09:03:22;;;;;;;14.45;8.63;;;;;;;23.14;100.00;101670.16;10302685;28;20030;-80
2023/05/06 09:08:24;;;;;;;10.57;7.65;;;;;;;23.56;100.00;101657.50;10317334;28;20466;-78
2023/05/06 09:13:24;;;;;;;11.82;7.35;;;;;;;24.50;100.00;101658.53;10315744;28;20041;-77
2023/05/06 09:18:26;;;;;;;12.85;7.25;;;;;;;24.64;100.00;101654.16;10316392;28;20066;-77
2023/05/06 09:23:26;;;;;;;12.27;6.45;;;;;;;24.97;100.00;101640.91;10300623;28;20125;-78
2023/05/06 09:28:27;;;;;;;12.57;5.47;;;;;;;24.97;100.00;101654.75;10299670;28;20484;-77
2023/05/06 09:33:27;;;;;;;13.05;6.78;;;;;;;24.68;100.00;101646.97;10284378;28;20041;-78
2023/05/06 09:38:28;;;;;;;9.90;5.63;;;;;;;23.78;100.00;101641.63;10299088;28;20084;-78
2023/05/06 09:43:29;;;;;;;9.82;5.43;;;;;;;23.96;100.00;101636.72;10283207;28;20126;-80
2023/05/06 09:48:29;;;;;;;7.72;6.03;;;;;;;23.55;100.00;101639.25;10317369;28;20032;-82
2023/05/06 09:53:30;;;;;;;7.13;6.38;;;;;;;22.60;100.00;101645.31;10314723;28;20031;-82
2023/05/06 09:58:33;;;;;;;10.02;5.53;;;;;;;23.50;100.00;101636.44;10332854;28;20109;-82
2023/05/06 10:03:34;;;;;;;10.73;6.25;;;;;;;23.54;100.00;101629.28;10308447;28;20038;-83
2023/05/06 10:08:34;;;;;;;7.47;5.18;;;;;;;23.05;100.00;101638.59;10315653;28;20038;-83
2023/05/06 10:13:35;;;;;;;5.95;5.35;;;;;;;22.55;100.00;101622.34;10317046;28;20038;-77
2023/05/06 10:18:35;;;;;;;17.05;7.20;;;;;;;23.29;100.00;101624.38;10315441;28;20430;-83
2023/05/06 10:23:47;;;;;;;9.18;6.05;;;;;;;24.23;100.00;101623.56;10341062;28;20026;-80
2023/05/06 10:28:51;;;;;;;8.25;5.35;;;;;;;24.16;100.00;101617.44;10334677;28;20035;-83
2023/05/06 10:33:51;;;;;;;6.60;5.15;;;;;;;24.21;100.00;101609.16;10309327;28;20044;-79
2023/05/06 10:38:55;;;;;;;7.70;5.10;;;;;;;24.61;100.00;101612.34;10305590;28;20121;-75
2023/05/06 10:43:56;;;;;;;4.28;3.67;;;;;;;24.70;100.00;101597.66;10321021;28;20026;-75
2023/05/06 10:49:09;;;;;;;3.85;3.47;;;;;;;24.78;100.00;101599.88;10321277;28;20042;-75
2023/05/06 10:54:20;;;;;;;4.05;3.38;;;;;;;25.26;100.00;101589.34;10321111;28;20402;-75
2023/05/06 10:59:21;;;;;;;8.38;3.10;;;;;;;25.23;72.32;101595.47;10337577;28;20023;-75
2023/05/06 11:04:22;;;;;;;15.73;4.72;;;;;;;24.79;92.00;101589.63;10321877;28;20096;-75
2023/05/06 11:09:23;;;;;;;3.83;3.33;;;;;;;25.03;91.43;101587.16;10338422;28;20410;-76
2023/05/06 11:14:29;;;;;;;4.88;4.40;;;;;;;24.17;96.62;101588.66;10339251;28;20030;-75
2023/05/06 11:19:30;;;;;;;;;;;;;;;23.05;97.24;101579.75;10338878;28;20504;-76
2023/05/06 11:24:38;;;;;;;10.38;4.43;;;;;;;23.78;97.15;101577.19;10340215;28;19920;-74
2023/05/06 11:29:39;;;;;;;8.93;4.78;;;;;;;23.27;100.00;101579.63;10304454;28;20122;-75
2023/05/06 11:34:39;;;;;;;6.05;4.93;;;;;;;24.12;85.11;101583.97;10303132;28;20398;-74
2023/05/06 11:39:47;;;;;;;5.22;4.75;;;;;;;24.22;97.45;101585.06;10320407;28;20039;-74
2023/05/06 11:44:47;;;;;;;6.97;5.93;;;;;;;24.70;89.76;101575.50;10337172;28;20480;-77
2023/05/06 11:49:52;;;;;;;9.82;6.18;;;;;;;24.75;96.34;101577.44;10336181;28;20113;-76
2023/05/06 11:54:53;;;;;;;6.47;5.88;;;;;;;24.27;90.36;101580.38;10319427;28;20055;-76
2023/05/06 11:59:54;;;;;;;9.82;6.60;;;;;;;24.96;82.77;101581.88;10337403;28;20407;-76
2023/05/06 12:04:55;;;;;;;7.38;5.97;;;;;;;26.00;88.86;101570.28;10337647;28;20147;-76
2023/05/06 12:09:57;;;;;;;6.97;6.30;;;;;;;26.72;76.73;101581.81;10336886;28;20487;-77
2023/05/06 12:14:58;;;;;;;7.10;6.40;;;;;;;24.98;73.89;101579.69;10337897;28;20042;-77
2023/05/06 12:19:58;;;;;;;8.02;6.13;;;;;;;25.21;77.35;101577.47;10320807;28;20080;-78
2023/05/06 12:25:14;;;;;;;7.53;5.80;;;;;;;24.01;89.64;101579.47;10339684;28;20023;-77
2023/05/06 12:30:14;;;;;;;4.57;4.17;;;;;;;23.54;83.53;101585.03;10324517;28;20042;-77
2023/05/06 12:35:27;;;;;;;5.45;3.85;;;;;;;23.63;91.34;101583.44;10338821;28;20118;-77
2023/05/06 12:40:28;;;;;;;6.97;6.25;;;;;;;23.63;97.79;101584.25;10341929;28;20044;-77
2023/05/06 12:45:28;;;;;;;17.85;14.98;;;;;;;24.16;100.00;101577.88;10341976;28;20445;-76
2023/05/06 12:50:31;;;;;;;8.90;6.13;;;;;;;24.68;81.26;101596.28;10338506;28;20041;-74
2023/05/06 12:55:35;;;;;;;6.30;5.55;;;;;;;24.06;89.31;101590.56;10337182;28;20037;-75
2023/05/06 13:00:36;;;;;;;14.10;7.13;;;;;;;24.14;81.35;101583.66;10302790;28;20057;-76
2023/05/06 13:05:36;;;;;;;7.03;6.13;;;;;;;23.75;100.00;101586.84;10317117;28;20066;-75
2023/05/06 13:10:37;;;;;;;7.03;6.28;;;;;;;23.00;98.78;101586.03;10334137;28;20054;-75
2023/05/06 13:15:37;;;;;;;6.40;5.50;;;;;;;23.11;97.42;101592.50;10334667;28;20420;-74
2023/05/06 13:20:38;;;;;;;5.30;4.80;;;;;;;22.71;100.00;101588.25;10336785;28;20034;-73
2023/05/06 13:25:38;;;;;;;4.25;3.90;;;;;;;22.81;91.20;101588.34;10338312;28;20114;-76
2023/05/06 13:30:39;;;;;;;4.90;4.35;;;;;;;23.12;82.87;101591.41;10337763;28;20041;-79
2023/05/06 13:35:39;;;;;;;6.93;6.32;;;;;;;22.69;92.07;101582.19;10304231;28;20552;-76
2023/05/06 13:40:39;;;;;;;5.88;5.38;;;;;;;22.42;94.19;101585.75;10317808;28;20061;-77
2023/05/06 13:45:40;;;;;;;10.68;6.55;;;;;;;22.52;97.37;101582.28;10315984;28;20466;-76
2023/05/06 13:50:41;;;;;;;9.85;6.82;;;;;;;22.62;100.00;101574.13;10333475;28;20034;-77
2023/05/06 13:55:41;;;;;;;7.68;7.03;;;;;;;22.63;91.86;101563.91;10332179;28;20101;-75
2023/05/06 14:00:42;;;;;;;7.70;6.85;;;;;;;22.43;98.92;101572.78;10288732;28;20038;-75
2023/05/06 14:05:43;;;;;;;7.75;6.45;;;;;;;22.38;99.29;101568.06;10340339;28;20049;-78
2023/05/06 14:10:44;;;;;;;10.80;7.68;;;;;;;22.39;100.00;101561.44;10323232;28;20062;-75
2023/05/06 14:15:44;;;;;;;11.88;8.07;;;;;;;22.46;96.11;101564.00;10321752;28;20121;-76
2023/05/06 14:20:44;;;;;;;10.18;8.88;;;;;;;22.70;100.00;101550.72;10340006;28;20031;-77
2023/05/06 14:25:45;;;;;;;12.50;9.70;;;;;;;22.64;100.00;101544.31;10339972;28;20355;-75
2023/05/06 14:30:46;;;;;;;12.48;9.35;;;;;;;22.50;100.00;101554.13;10323286;28;20092;-76
2023/05/06 14:35:46;;;;;;;13.05;8.50;;;;;;;22.39;100.00;101552.34;10339453;28;20120;-73
2023/05/06 14:40:47;;;;;;;11.77;7.72;;;;;;;21.48;92.44;101552.91;10341067;28;20038;-76
2023/05/06 14:45:47;;;;;;;11.23;8.95;;;;;;;20.86;99.13;101554.69;10340734;28;20042;-77
2023/05/06 14:50:47;;;;;;;13.02;8.43;;;;;;;20.96;100.00;101548.50;10322332;28;20041;-78
2023/05/06 14:55:48;;;;;;;8.95;8.15;;;;;;;20.88;100.00;101551.69;10323741;28;20034;-76
2023/05/06 15:00:48;;;;;;;10.98;9.20;;;;;;;21.28;100.00;101545.13;10307575;28;20109;-76
2023/05/06 15:05:49;;;;;;;7.47;5.22;;;;;;;21.13;100.00;101540.25;10342724;28;20039;-76
2023/05/06 15:10:50;;;;;;;8.98;5.78;;;;;;;21.08;100.00;101543.75;10323028;28;20062;-76
2023/05/06 15:15:50;;;;;;;6.20;5.55;;;;;;;20.94;100.00;101539.69;10309414;28;20038;-75
2023/05/06 15:20:53;;;;;;;4.40;4.07;;;;;;;20.50;100.00;101544.97;10329728;28;20046;-75
2023/05/06 15:25:55;;;;;;;4.32;3.92;;;;;;;20.58;100.00;101550.09;10330498;28;20037;-75
2023/05/06 15:30:56;;;;;;;3.50;2.88;;;;;;;20.63;100.00;101544.66;10346719;28;20070;-75
2023/05/06 15:35:56;;;;;;;5.07;3.22;;;;;;;20.86;100.00;101549.16;10347623;28;20058;-75
2023/05/06 15:40:56;;;;;;;4.57;3.20;;;;;;;21.01;100.00;101545.84;10330197;28;20106;-76
2023/05/06 15:45:57;;;;;;;7.40;3.05;;;;;;;20.99;100.00;101550.75;10345907;28;20046;-76
2023/05/06 15:50:57;;;;;;;2.83;2.58;;;;;;;20.85;100.00;101541.19;10307628;28;20062;-76
2023/05/06 15:55:58;;;;;;;3.97;2.95;;;;;;;20.88;100.00;101554.44;10322019;28;20042;-75
2023/05/06 16:00:58;;;;;;;2.92;2.33;;;;;;;20.90;100.00;101547.59;10338854;28;20042;-76
2023/05/06 16:05:59;;;;;;;5.90;4.32;;;;;;;20.80;100.00;101557.59;10338914;28;20443;-75
2023/05/06 16:10:59;;;;;;;11.50;8.45;;;;;;;20.56;100.00;101554.19;10320343;28;20100;-76
2023/05/06 16:15:59;;;;;;;13.93;9.13;;;;;;;20.34;100.00;101562.28;10339598;28;20050;-75
2023/05/06 16:21:00;;;;;;;19.48;9.30;;;;;;;20.07;100.00;101562.88;10341519;28;20042;-75
2023/05/06 16:26:01;;;;;;;24.92;11.02;;;;;;;19.74;100.00;101580.03;10324138;28;20047;-75
2023/05/06 16:31:02;;;;;;;22.23;12.73;;;;;;;19.22;100.00;101583.53;10340935;28;20041;-75
2023/05/06 16:36:03;;;;;;;17.83;9.05;;;;;;;18.63;100.00;101592.69;10341279;28;20034;-75
2023/05/06 16:41:04;;;;;;;12.57;8.80;;;;;;;17.89;100.00;101599.16;10323565;28;20034;-75
2023/05/06 16:46:05;;;;;;;17.70;8.98;;;;;;;17.15;100.00;101592.75;10340534;28;20030;-73
2023/05/06 16:51:05;;;;;;;12.20;8.73;;;;;;;16.78;100.00;101593.69;10338027;28;20466;-73
2023/05/06 16:56:05;;;;;;;18.10;8.73;;;;;;;16.53;100.00;101586.28;10337454;28;20050;-73
2023/05/06 17:01:06;;;;;;;9.55;7.75;;;;;;;16.45;100.00;101581.91;10338770;28;20434;-74
2023/05/06 17:06:07;;;;;;;10.75;7.72;;;;;;;16.55;100.00;101588.78;10318018;28;20053;-75
2023/05/06 17:11:07;;;;;;;13.18;6.10;;;;;;;16.51;100.00;101591.94;10336318;28;20135;-75
2023/05/06 17:16:08;;;;;;;12.68;6.68;;;;;;;16.39;100.00;101587.41;10339976;28;20038;-76
2023/05/06 17:21:08;;;;;;;7.95;5.03;;;;;;;16.32;100.00;101586.59;10326197;28;20034;-76
2023/05/06 17:26:08;;;;;;;13.73;6.93;;;;;;;16.22;100.00;101584.34;10341924;28;20406;-77
2023/05/06 17:31:09;;;;;;;11.73;6.10;;;;;;;16.20;100.00;101586.44;10321901;28;20050;-76
2023/05/06 17:36:09;;;;;;;12.52;8.27;;;;;;;16.19;100.00;101587.53;10337161;28;20038;-76
2023/05/06 17:41:10;;;;;;;12.55;8.50;;;;;;;16.22;100.00;101592.56;10320106;28;20046;-77
2023/05/06 17:46:10;;;;;;;13.57;9.13;;;;;;;16.27;100.00;101590.84;10318878;28;20433;-77
2023/05/06 17:51:11;;;;;;;13.77;9.20;;;;;;;16.33;100.00;101580.09;10337220;28;20089;-75
2023/05/06 17:56:11;;;;;;;14.57;10.70;;;;;;;16.34;100.00;101590.81;10337105;28;20031;-75
2023/05/06 18:01:12;;;;;;;23.65;15.50;;;;;;;16.22;100.00;101595.28;10319014;28;20117;-76
2023/05/06 18:06:13;;;;;;;18.63;12.00;;;;;;;16.10;100.00;101594.28;10319681;28;20397;-77
2023/05/06 18:11:13;;;;;;;14.73;11.88;;;;;;;15.92;100.00;101589.53;10302622;28;20050;-75
2023/05/06 18:16:14;;;;;;;20.63;13.48;;;;;;;15.77;100.00;101589.81;10301396;28;20061;-74
2023/05/06 18:21:14;;;;;;;18.30;13.77;;;;;;;15.69;100.00;101592.75;10335512;28;20050;-76
2023/05/06 18:26:15;;;;;;;1.55;1.45;;;;;;;15.61;100.00;101590.25;10318073;28;20034;-79
2023/05/06 18:31:15;;;;;;;0.95;0.95;;;;;;;15.56;100.00;101586.25;10283544;28;20034;-81
2023/05/06 18:36:16;;;;;;;0.80;0.80;;;;;;;15.53;100.00;101594.84;10315305;28;20062;-79
2023/05/06 18:41:16;;;;;;;0.38;0.38;;;;;;;15.47;100.00;101597.59;10316056;28;20555;-78
2023/05/06 18:46:17;;;;;;;1.52;1.38;;;;;;;15.40;100.00;101599.50;10319228;28;20039;-79
2023/05/06 18:51:17;;;;;;;2.15;1.95;;;;;;;15.35;100.00;101594.69;10323825;28;20077;-80
2023/05/06 18:56:18;;;;;;;0.40;0.40;;;;;;;15.34;100.00;101598.47;10321827;28;20035;-78
2023/05/06 19:01:18;;;;;;;0.75;0.75;;;;;;;15.32;100.00;101597.84;10289750;28;20117;-79
2023/05/06 19:06:18;;;;;;;0.35;0.35;;;;;;;15.40;100.00;101600.34;10337795;28;20053;-79
2023/05/06 19:11:19;;;;;;;1.10;1.10;;;;;;;15.45;100.00;101600.56;10321848;28;20145;-79
2023/05/06 19:16:20;;;;;;;4.28;1.27;;;;;;;15.46;100.00;101604.94;10305263;28;20433;-80
2023/05/06 19:21:20;;;;;;;0.80;0.80;;;;;;;15.38;100.00;101597.00;10321794;28;20066;-80
2023/05/06 19:26:21;;;;;;;0.70;0.70;;;;;;;15.30;100.00;101595.31;10305694;28;20578;-80
2023/05/06 19:31:21;;;;;;;12.73;3.30;;;;;;;15.23;100.00;101593.66;10337249;28;20061;-79
2023/05/06 19:36:22;;;;;;;2.40;2.33;;;;;;;15.20;100.00;101592.19;10320937;28;20134;-80
2023/05/06 19:41:22;;;;;;;0.82;0.82;;;;;;;15.13;100.00;101585.91;10320361;28;20085;-81
2023/05/06 19:46:22;;;;;;;1.80;1.77;;;;;;;14.99;100.00;101595.13;10337473;28;20118;-81
2023/05/06 19:51:23;;;;;;;0.95;0.95;;;;;;;14.85;100.00;101583.38;10303755;28;20113;-81
2023/05/06 19:56:23;;;;;;;5.35;4.93;;;;;;;14.85;100.00;101586.94;10303958;28;20066;-80
2023/05/06 20:01:25;;;;;;;3.53;3.33;;;;;;;14.82;100.00;101586.53;10338045;28;20038;-80
2023/05/06 20:06:28;;;;;;;2.75;2.65;;;;;;;14.74;100.00;101575.81;10337078;28;20096;-79
2023/05/06 20:11:28;;;;;;;2.58;2.47;;;;;;;14.67;100.00;101578.53;10319398;28;20489;-80
2023/05/06 20:16:29;;;;;;;3.75;3.60;;;;;;;14.64;100.00;101579.81;10337174;28;20062;-78
2023/05/06 20:21:30;;;;;;;3.72;2.38;;;;;;;14.64;100.00;101581.69;10336401;28;20126;-81
2023/05/06 20:26:30;;;;;;;1.98;1.98;;;;;;;14.61;100.00;101588.41;10319897;28;20038;-81
2023/05/06 20:31:31;;;;;;;0.40;0.40;;;;;;;14.60;100.00;101591.31;10319840;28;20034;-82
2023/05/06 20:36:33;;;;;;;2.10;2.00;;;;;;;14.58;100.00;101586.09;10336642;28;20031;-81
2023/05/06 20:41:34;;;;;;;4.35;4.15;;;;;;;14.59;100.00;101586.94;10303016;28;20042;-81
2023/05/06 20:46:35;;;;;;;1.08;0.98;;;;;;;14.58;100.00;101585.22;10335983;28;20046;-82
2023/05/06 20:51:35;;;;;;;1.08;1.08;;;;;;;14.56;100.00;101593.63;10335882;28;20049;-80
2023/05/06 20:56:36;;;;;;;0.95;0.95;;;;;;;14.52;100.00;101581.47;10317579;28;20034;-82
2023/05/06 21:01:36;;;;;;;1.13;1.13;;;;;;;14.42;100.00;101590.00;10317442;28;20109;-81
2023/05/06 21:06:37;;;;;;;3.53;3.35;;;;;;;14.36;100.00;101593.56;10284770;28;20525;-81
2023/05/06 21:11:37;;;;;;;3.95;3.63;;;;;;;14.32;100.00;101599.59;10334131;28;20081;-81
2023/05/06 21:16:40;;;;;;;3.63;3.42;;;;;;;14.32;100.00;101600.44;10300369;28;20038;-81
2023/05/06 21:21:41;;;;;;;1.63;1.63;;;;;;;14.29;100.00;101598.13;10317160;28;20030;-82
2023/05/06 21:26:41;;;;;;;1.27;1.27;;;;;;;14.29;100.00;101595.41;10317230;28;20062;-82
2023/05/06 21:31:42;;;;;;;1.15;1.15;;;;;;;14.26;100.00;101597.69;10316530;28;20041;-82
2023/05/06 21:36:42;;;;;;;0.90;0.90;;;;;;;14.22;100.00;101597.28;10317614;28;20026;-83
2023/05/06 21:41:42;;;;;;;1.10;1.10;;;;;;;14.18;100.00;101590.56;10316964;28;20141;-81
2023/05/06 21:46:43;;;;;;;1.13;1.13;;;;;;;14.16;100.00;101590.75;10316694;28;20418;-83
2023/05/06 21:51:44;;;;;;;0.60;0.60;;;;;;;14.12;100.00;101594.94;10335237;28;20030;-83
2023/05/06 21:56:44;;;;;;;3.85;2.85;;;;;;;14.14;100.00;101590.13;10316617;28;20454;-80
2023/05/06 22:01:44;;;;;;;2.20;2.15;;;;;;;14.17;100.00;101586.16;10333532;28;20117;-82
2023/05/06 22:06:45;;;;;;;2.33;2.22;;;;;;;14.16;100.00;101576.28;10333967;28;20033;-83
2023/05/06 22:11:45;;;;;;;0.73;0.73;;;;;;;14.12;100.00;101586.75;10299895;28;20112;-82
2023/05/06 22:16:46;;;;;;;2.42;2.33;;;;;;;14.19;100.00;101576.72;10317204;28;20038;-79
2023/05/06 22:21:47;;;;;;;1.55;1.55;;;;;;;14.14;100.00;101587.41;10339765;28;20022;-82
2023/05/06 22:26:47;;;;;;;1.65;1.58;;;;;;;14.12;100.00;101589.50;10323239;28;20030;-83
2023/05/06 22:31:48;;;;;;;2.00;2.00;;;;;;;14.13;100.00;101579.44;10323068;28;20603;-81